createdAt,value
2022-08-11T12:36:57.519Z,20.38
2022-08-11T12:40:17.262Z,19.99
2022-08-11T12:42:55.603Z,20.72
2022-08-11T12:45:28.430Z,19.26
2022-08-11T12:48:57.944Z,20.00
2022-08-11T12:53:29.848Z,20.62
2022-08-11T12:56:34.412Z,20.07
2022-08-11T12:59:21.645Z,19.88
2022-08-11T13:02:07.909Z,19.97
2022-08-11T13:04:54.392Z,20.53
2022-08-11T13:07:22.366Z,19.84
2022-08-11T13:09:51.194Z,19.97
2022-08-11T13:12:37.762Z,19.71
2022-08-11T13:15:05.909Z,19.76
2022-08-11T13:17:43.497Z,20.46
2022-08-11T13:20:13.491Z,19.29
2022-08-11T13:22:45.746Z,20.51
2022-08-11T13:25:16.546Z,19.82
2022-08-11T13:27:44.404Z,20.53
2022-08-11T13:30:35.560Z,20.83
2022-08-11T13:33:07.694Z,19.51
2022-08-11T13:35:36.083Z,20.51
2022-08-11T13:38:19.130Z,20.28
2022-08-11T13:40:56.146Z,20.28
2022-08-11T13:43:24.101Z,19.61
2022-08-11T13:46:13.357Z,20.42
2022-08-11T13:48:42.351Z,19.76
2022-08-11T13:51:34.542Z,20.18
2022-08-11T13:54:04.782Z,19.45
2022-08-11T13:56:34.189Z,19.52
2022-08-11T13:59:03.452Z,19.95
2022-08-11T14:02:19.680Z,19.46
2022-08-11T14:04:28.629Z,19.75
2022-08-11T14:07:00.916Z,19.55
2022-08-11T14:09:30.491Z,19.96
2022-08-11T14:12:24.411Z,19.23
2022-08-11T14:15:05.840Z,19.91
2022-08-11T14:17:48.127Z,20.35
2022-08-11T14:20:39.322Z,19.31
2022-08-11T14:23:06.417Z,18.93
2022-08-11T14:26:00.433Z,19.56
2022-08-11T14:28:31.886Z,19.06
2022-08-11T14:31:02.781Z,19.49
2022-08-11T14:33:59.915Z,19.47
2022-08-11T14:36:20.818Z,19.95
2022-08-11T14:38:48.591Z,19.75
2022-08-11T14:41:34.868Z,19.89
2022-08-11T14:44:22.507Z,19.41
2022-08-11T14:47:05.726Z,19.59
2022-08-11T14:49:58.651Z,19.09
2022-08-11T14:52:43.344Z,18.77
2022-08-11T14:55:30.349Z,19.40
2022-08-11T14:57:57.983Z,19.98
2022-08-11T15:00:26.810Z,19.30
2022-08-11T15:03:13.961Z,18.74
2022-08-11T15:05:56.015Z,19.55
2022-08-11T15:08:47.159Z,19.28
2022-08-11T15:11:34.373Z,19.67
2022-08-11T15:14:04.137Z,19.91
2022-08-11T15:16:51.723Z,19.77
2022-08-11T15:19:21.405Z,19.80
2022-08-11T15:22:08.043Z,20.15
2022-08-11T15:24:36.551Z,19.95
2022-08-11T15:27:25.549Z,19.81
2022-08-11T15:30:17.581Z,18.93
2022-08-11T15:33:23.270Z,19.19
2022-08-11T15:36:10.150Z,19.45
2022-08-11T15:38:42.491Z,19.75
2022-08-11T15:41:29.694Z,19.85
2022-08-11T15:44:16.191Z,20.28
2022-08-11T15:46:47.341Z,19.89
2022-08-11T15:49:23.829Z,20.19
2022-08-11T15:52:00.362Z,19.76
2022-08-11T15:54:32.046Z,19.61
2022-08-11T15:57:01.821Z,20.00
2022-08-11T15:59:52.085Z,20.57
2022-08-11T16:02:41.296Z,20.35
2022-08-11T16:05:13.925Z,20.05
2022-08-11T16:08:01.532Z,20.70
2022-08-11T16:10:33.090Z,21.02
2022-08-11T16:13:07.491Z,20.73
2022-08-11T16:15:56.493Z,20.33
2022-08-11T16:18:40.918Z,20.63
2022-08-11T16:21:34.430Z,20.22
2022-08-11T16:24:01.869Z,20.84
2022-08-11T16:27:07.523Z,20.58
2022-08-11T16:29:19.725Z,20.74
2022-08-11T16:32:07.997Z,20.60
2022-08-11T16:34:54.936Z,20.73
2022-08-11T16:37:42.722Z,20.83
2022-08-11T16:40:11.763Z,21.20
2022-08-11T16:43:08.712Z,20.96
2022-08-11T16:45:58.348Z,21.25
2022-08-11T16:48:35.006Z,20.92
2022-08-11T16:51:05.738Z,20.97
2022-08-11T16:53:46.101Z,20.65
2022-08-11T16:56:27.330Z,20.35
2022-08-11T16:59:15.277Z,20.81
2022-08-11T17:01:46.500Z,20.41
2022-08-11T17:04:39.820Z,20.58
2022-08-11T17:07:41.657Z,20.71
2022-08-11T17:10:51.089Z,20.97
2022-08-11T17:13:23.920Z,20.99
2022-08-11T17:16:12.271Z,21.00
2022-08-11T17:18:54.580Z,20.81
2022-08-11T17:21:26.325Z,20.25
2022-08-11T17:23:57.065Z,20.63
2022-08-11T17:26:51.654Z,20.35
2022-08-11T17:29:23.624Z,20.68
2022-08-11T17:32:10.292Z,20.59
2022-08-11T17:34:58.277Z,20.62
2022-08-11T17:37:26.119Z,21.18
2022-08-11T17:39:55.033Z,21.40
2022-08-11T17:42:44.497Z,21.42
2022-08-11T17:45:31.800Z,21.09
2022-08-11T17:48:19.804Z,21.64
2022-08-11T17:50:48.396Z,21.11
2022-08-11T17:53:35.191Z,21.30
2022-08-11T17:56:23.004Z,21.39
2022-08-11T17:59:12.651Z,21.25
2022-08-11T18:01:41.675Z,21.43
2022-08-11T18:04:13.583Z,21.19
2022-08-11T18:06:42.214Z,21.33
2022-08-11T18:09:32.056Z,21.65
2022-08-11T18:12:19.281Z,21.72
2022-08-11T18:15:09.179Z,22.06
2022-08-11T18:17:56.348Z,22.02
2022-08-11T18:20:42.869Z,21.86
2022-08-11T18:23:40.070Z,22.21
2022-08-11T18:26:36.295Z,22.15
2022-08-11T18:29:25.104Z,22.13
2022-08-11T18:32:21.835Z,22.35
2022-08-11T18:35:11.096Z,23.00
2022-08-11T18:38:03.937Z,22.72
2022-08-11T18:40:51.288Z,22.81
2022-08-11T18:43:43.023Z,22.84
2022-08-11T18:46:31.736Z,22.65
2022-08-11T18:49:24.407Z,22.88
2022-08-11T18:52:15.273Z,22.97
2022-08-11T18:55:03.142Z,23.31
2022-08-11T18:57:53.755Z,23.17
2022-08-11T19:00:41.154Z,23.18
2022-08-11T19:03:28.251Z,23.74
2022-08-11T19:06:38.220Z,23.98
2022-08-11T19:09:25.793Z,24.08
2022-08-11T19:12:13.540Z,24.16
2022-08-11T19:15:01.343Z,23.67
2022-08-11T19:17:49.741Z,24.68
2022-08-11T19:20:37.945Z,24.04
2022-08-11T19:23:27.490Z,24.25
2022-08-11T19:26:15.076Z,24.31
2022-08-11T19:29:04.383Z,25.11
2022-08-11T19:31:51.260Z,24.56
2022-08-11T19:34:39.501Z,24.54
2022-08-11T19:37:26.248Z,24.89
2022-08-11T19:40:16.389Z,25.29
2022-08-11T19:43:04.018Z,25.10
2022-08-11T19:46:05.639Z,25.35
2022-08-11T19:48:52.480Z,25.35
2022-08-11T19:51:39.489Z,25.42
2022-08-11T19:54:25.771Z,25.96
2022-08-11T19:57:16.299Z,25.67
2022-08-11T20:00:03.052Z,26.20
2022-08-11T20:02:50.008Z,26.83
2022-08-11T20:05:35.869Z,26.27
2022-08-11T20:08:22.733Z,26.35
2022-08-11T20:11:09.641Z,27.14
2022-08-11T20:14:01.010Z,26.97
2022-08-11T20:16:46.804Z,27.22
2022-08-11T20:19:54.650Z,27.40
2022-08-11T20:22:43.075Z,28.00
2022-08-11T20:25:29.559Z,27.89
2022-08-11T20:28:15.302Z,28.06
2022-08-11T20:31:04.587Z,27.92
2022-08-11T20:33:51.526Z,28.30
2022-08-11T20:36:36.728Z,28.26
2022-08-11T20:39:22.585Z,28.79
2022-08-11T20:42:09.949Z,29.06
2022-08-11T20:44:58.403Z,28.86
2022-08-11T20:47:58.961Z,29.39
2022-08-11T20:50:46.758Z,29.41
2022-08-11T20:53:35.789Z,29.17
2022-08-11T20:56:28.649Z,29.23
2022-08-11T20:59:18.196Z,29.41
2022-08-11T21:02:09.740Z,29.30
2022-08-11T21:05:00.304Z,29.02
2022-08-11T21:07:56.761Z,28.93
2022-08-11T21:10:46.840Z,28.50
2022-08-11T21:13:37.161Z,28.49
2022-08-11T21:16:26.196Z,28.67
2022-08-11T21:19:18.678Z,28.31
2022-08-11T21:22:07.153Z,28.40
2022-08-11T21:24:54.894Z,28.70
2022-08-11T21:27:42.280Z,28.27
2022-08-11T21:30:28.497Z,28.45
2022-08-11T21:33:15.217Z,28.47
2022-08-11T21:36:01.179Z,28.65
2022-08-11T21:38:49.655Z,29.15
2022-08-11T21:41:36.451Z,29.65
2022-08-11T21:44:24.940Z,31.07
2022-08-11T21:47:12.207Z,31.75
2022-08-11T21:49:59.426Z,33.14
2022-08-11T21:52:45.804Z,34.31
2022-08-11T21:55:33.363Z,35.32
2022-08-11T21:58:19.629Z,36.02
2022-08-11T22:01:06.077Z,36.62
2022-08-11T22:03:52.130Z,36.94
2022-08-11T22:06:39.539Z,37.89
2022-08-11T22:09:26.286Z,38.65
2022-08-11T22:12:34.676Z,39.22
2022-08-11T22:15:18.842Z,40.11
2022-08-11T22:18:04.236Z,39.71
2022-08-11T22:20:51.853Z,39.96
2022-08-11T22:23:38.552Z,40.76
2022-08-11T22:26:24.842Z,41.48
2022-08-11T22:29:12.188Z,41.34
2022-08-11T22:31:58.939Z,41.59
2022-08-11T22:34:53.416Z,40.70
2022-08-11T22:37:40.648Z,41.49
2022-08-11T22:40:28.318Z,42.22
2022-08-11T22:43:14.232Z,41.62
2022-08-11T22:46:02.534Z,41.50
2022-08-11T22:48:49.863Z,41.51
2022-08-11T22:51:38.216Z,42.36
2022-08-11T22:54:25.625Z,43.18
2022-08-11T22:57:11.839Z,43.14
2022-08-11T22:59:57.639Z,42.76
2022-08-11T23:02:46.784Z,42.27
2022-08-11T23:05:33.984Z,42.16
2022-08-11T23:08:20.043Z,42.86
2022-08-11T23:11:06.815Z,42.68
2022-08-11T23:13:52.689Z,43.32
2022-08-11T23:16:39.015Z,43.48
2022-08-11T23:20:08.796Z,43.21
2022-08-11T23:22:49.063Z,44.59
2022-08-11T23:25:36.742Z,43.99
2022-08-11T23:28:24.429Z,44.32
2022-08-11T23:31:12.521Z,43.97
2022-08-11T23:34:01.161Z,45.11
2022-08-11T23:36:48.170Z,45.79
2022-08-11T23:39:34.850Z,45.68
2022-08-11T23:42:20.598Z,45.20
2022-08-11T23:45:09.738Z,45.41
2022-08-11T23:47:57.871Z,46.10
2022-08-11T23:50:44.652Z,46.21
2022-08-11T23:53:33.024Z,46.41
2022-08-11T23:56:21.665Z,45.87
2022-08-11T23:59:08.885Z,46.49
